sensor_id;sensor_type;location;lat;lon;timestamp;pressure;altitude;pressure_sealevel;temperature;humidity
73151;BME280;61354;50.758;6.106;2023-08-30T00:01:10;98475.66;;;13.54;100.00
73151;BME280;61354;50.758;6.106;2023-08-30T00:03:36;98482.03;;;13.55;100.00
73151;BME280;61354;50.758;6.106;2023-08-30T00:06:06;98475.66;;;13.54;100.00
73151;BME280;61354;50.758;6.106;2023-08-30T00:08:32;98471.63;;;13.52;100.00
73151;BME280;61354;50.758;6.106;2023-08-30T00:10:58;98470.03;;;13.47;100.00
73151;BME280;61354;50.758;6.106;2023-08-30T00:13:25;98468.84;;;13.41;100.00
73151;BME280;61354;50.758;6.106;2023-08-30T00:15:51;98468.81;;;13.34;100.00
73151;BME280;61354;50.758;6.106;2023-08-30T00:18:17;98467.59;;;13.35;100.00
73151;BME280;61354;50.758;6.106;2023-08-30T00:20:44;98466.81;;;13.34;100.00
73151;BME280;61354;50.758;6.106;2023-08-30T00:23:10;98473.97;;;13.28;100.00
73151;BME280;61354;50.758;6.106;2023-08-30T00:25:44;98456.06;;;13.33;100.00
73151;BME280;61354;50.758;6.106;2023-08-30T00:28:10;98462.03;;;13.28;100.00
73151;BME280;61354;50.758;6.106;2023-08-30T00:30:36;98459.59;;;13.23;100.00
73151;BME280;61354;50.758;6.106;2023-08-30T00:33:01;98454.00;;;13.23;100.00
73151;BME280;61354;50.758;6.106;2023-08-30T00:35:27;98450.78;;;13.17;100.00
73151;BME280;61354;50.758;6.106;2023-08-30T00:37:53;98455.53;;;13.13;100.00
73151;BME280;61354;50.758;6.106;2023-08-30T00:40:23;98452.75;;;13.09;100.00
73151;BME280;61354;50.758;6.106;2023-08-30T00:42:49;98454.72;;;13.05;100.00
73151;BME280;61354;50.758;6.106;2023-08-30T00:45:15;98443.16;;;13.03;100.00
73151;BME280;61354;50.758;6.106;2023-08-30T00:47:40;98448.31;;;13.01;100.00
73151;BME280;61354;50.758;6.106;2023-08-30T00:50:06;98452.31;;;13.00;100.00
73151;BME280;61354;50.758;6.106;2023-08-30T00:52:32;98450.75;;;13.06;100.00
73151;BME280;61354;50.758;6.106;2023-08-30T00:54:58;98449.13;;;13.05;100.00
73151;BME280;61354;50.758;6.106;2023-08-30T00:57:24;98447.13;;;12.99;100.00
73151;BME280;61354;50.758;6.106;2023-08-30T00:59:51;98439.94;;;12.98;100.00
73151;BME280;61354;50.758;6.106;2023-08-30T01:02:18;98439.94;;;12.98;100.00
73151;BME280;61354;50.758;6.106;2023-08-30T01:04:45;98440.34;;;12.96;100.00
73151;BME280;61354;50.758;6.106;2023-08-30T01:07:11;98431.59;;;12.94;100.00
73151;BME280;61354;50.758;6.106;2023-08-30T01:09:36;98430.75;;;12.93;100.00
73151;BME280;61354;50.758;6.106;2023-08-30T01:12:34;98434.75;;;12.92;100.00
73151;BME280;61354;50.758;6.106;2023-08-30T01:15:34;98428.38;;;12.92;100.00
73151;BME280;61354;50.758;6.106;2023-08-30T01:18:03;98425.56;;;12.88;100.00
73151;BME280;61354;50.758;6.106;2023-08-30T01:20:35;98422.00;;;12.88;100.00
73151;BME280;61354;50.758;6.106;2023-08-30T01:23:06;98419.97;;;12.85;100.00
73151;BME280;61354;50.758;6.106;2023-08-30T01:25:46;98420.38;;;12.83;100.00
73151;BME280;61354;50.758;6.106;2023-08-30T01:28:20;98425.16;;;12.83;100.00
73151;BME280;61354;50.758;6.106;2023-08-30T01:30:46;98423.56;;;12.85;100.00
73151;BME280;61354;50.758;6.106;2023-08-30T01:33:16;98421.53;;;12.75;100.00
73151;BME280;61354;50.758;6.106;2023-08-30T01:35:44;98417.16;;;12.81;100.00
73151;BME280;61354;50.758;6.106;2023-08-30T01:38:11;98415.59;;;12.84;100.00
73151;BME280;61354;50.758;6.106;2023-08-30T01:40:39;98412.78;;;12.80;100.00
73151;BME280;61354;50.758;6.106;2023-08-30T01:43:07;98413.97;;;12.76;100.00
73151;BME280;61354;50.758;6.106;2023-08-30T01:45:41;98403.63;;;12.76;100.00
73151;BME280;61354;50.758;6.106;2023-08-30T01:48:09;98407.63;;;12.79;100.00
73151;BME280;61354;50.758;6.106;2023-08-30T01:50:36;98410.81;;;12.81;100.00
73151;BME280;61354;50.758;6.106;2023-08-30T01:53:03;98395.69;;;12.78;100.00
73151;BME280;61354;50.758;6.106;2023-08-30T01:55:30;98400.47;;;12.78;100.00
73151;BME280;61354;50.758;6.106;2023-08-30T01:57:57;98391.69;;;12.76;100.00
73151;BME280;61354;50.758;6.106;2023-08-30T02:00:23;98397.59;;;12.67;100.00
73151;BME280;61354;50.758;6.106;2023-08-30T02:02:48;98392.03;;;12.67;100.00
73151;BME280;61354;50.758;6.106;2023-08-30T02:05:14;98403.59;;;12.69;100.00
73151;BME280;61354;50.758;6.106;2023-08-30T02:07:56;98398.00;;;12.65;100.00
73151;BME280;61354;50.758;6.106;2023-08-30T02:10:32;98401.97;;;12.64;100.00
73151;BME280;61354;50.758;6.106;2023-08-30T02:13:00;98394.34;;;12.54;100.00
73151;BME280;61354;50.758;6.106;2023-08-30T02:15:26;98394.75;;;12.56;100.00
73151;BME280;61354;50.758;6.106;2023-08-30T02:17:53;98390.81;;;12.64;100.00
73151;BME280;61354;50.758;6.106;2023-08-30T02:20:19;98382.03;;;12.59;100.00
73151;BME280;61354;50.758;6.106;2023-08-30T02:22:44;98393.19;;;12.59;100.00
73151;BME280;61354;50.758;6.106;2023-08-30T02:25:10;98383.63;;;12.60;100.00
73151;BME280;61354;50.758;6.106;2023-08-30T02:27:36;98389.97;;;12.53;100.00
73151;BME280;61354;50.758;6.106;2023-08-30T02:30:02;98387.56;;;12.52;100.00
73151;BME280;61354;50.758;6.106;2023-08-30T02:32:28;98389.97;;;12.53;100.00
73151;BME280;61354;50.758;6.106;2023-08-30T02:34:55;98382.78;;;12.52;100.00
73151;BME280;61354;50.758;6.106;2023-08-30T02:37:21;98375.66;;;12.55;100.00
73151;BME280;61354;50.758;6.106;2023-08-30T02:39:47;98380.06;;;12.59;100.00
73151;BME280;61354;50.758;6.106;2023-08-30T02:42:12;98375.72;;;12.65;100.00
73151;BME280;61354;50.758;6.106;2023-08-30T02:44:38;98370.53;;;12.67;100.00
73151;BME280;61354;50.758;6.106;2023-08-30T02:47:04;98362.97;;;12.64;100.00
73151;BME280;61354;50.758;6.106;2023-08-30T02:49:29;98362.97;;;12.68;100.00
73151;BME280;61354;50.758;6.106;2023-08-30T02:51:55;98359.81;;;12.69;100.00
73151;BME280;61354;50.758;6.106;2023-08-30T02:54:20;98366.22;;;12.74;100.00
73151;BME280;61354;50.758;6.106;2023-08-30T02:56:47;98373.00;;;12.80;100.00
73151;BME280;61354;50.758;6.106;2023-08-30T02:59:13;98370.63;;;12.82;100.00
73151;BME280;61354;50.758;6.106;2023-08-30T03:01:39;98365.44;;;12.84;100.00
73151;BME280;61354;50.758;6.106;2023-08-30T03:04:05;98359.47;;;12.82;100.00
73151;BME280;61354;50.758;6.106;2023-08-30T03:06:35;98351.91;;;12.82;100.00
73151;BME280;61354;50.758;6.106;2023-08-30T03:09:02;98357.50;;;12.86;100.00
73151;BME280;61354;50.758;6.106;2023-08-30T03:11:31;98351.13;;;12.85;100.00
73151;BME280;61354;50.758;6.106;2023-08-30T03:13:57;98351.13;;;12.85;100.00
73151;BME280;61354;50.758;6.106;2023-08-30T03:16:23;98346.78;;;12.91;100.00
73151;BME280;61354;50.758;6.106;2023-08-30T03:18:49;98342.78;;;12.92;100.00
73151;BME280;61354;50.758;6.106;2023-08-30T03:21:15;98338.81;;;12.93;100.00
73151;BME280;61354;50.758;6.106;2023-08-30T03:23:41;98348.00;;;12.94;100.00
73151;BME280;61354;50.758;6.106;2023-08-30T03:26:10;98344.78;;;12.92;100.00
73151;BME280;61354;50.758;6.106;2023-08-30T03:28:36;98348.00;;;13.01;100.00
73151;BME280;61354;50.758;6.106;2023-08-30T03:31:02;98339.63;;;13.01;100.00
73151;BME280;61354;50.758;6.106;2023-08-30T03:33:28;98330.47;;;13.04;100.00
73151;BME280;61354;50.758;6.106;2023-08-30T03:35:53;98334.09;;;13.08;100.00
73151;BME280;61354;50.758;6.106;2023-08-30T03:38:19;98328.50;;;13.08;100.00
73151;BME280;61354;50.758;6.106;2023-08-30T03:40:44;98319.38;;;13.11;100.00
73151;BME280;61354;50.758;6.106;2023-08-30T03:43:10;98329.69;;;13.14;100.00
73151;BME280;61354;50.758;6.106;2023-08-30T03:45:36;98322.16;;;13.18;100.00
73151;BME280;61354;50.758;6.106;2023-08-30T03:48:03;98327.72;;;13.18;100.00
73151;BME280;61354;50.758;6.106;2023-08-30T03:50:29;98329.72;;;13.22;100.00
73151;BME280;61354;50.758;6.106;2023-08-30T03:52:54;98329.69;;;13.14;100.00
73151;BME280;61354;50.758;6.106;2023-08-30T03:55:20;98332.13;;;13.16;100.00
73151;BME280;61354;50.758;6.106;2023-08-30T03:57:46;98325.72;;;13.12;100.00
73151;BME280;61354;50.758;6.106;2023-08-30T04:00:12;98330.50;;;13.11;100.00
73151;BME280;61354;50.758;6.106;2023-08-30T04:02:37;98324.94;;;13.08;100.00
73151;BME280;61354;50.758;6.106;2023-08-30T04:05:03;98332.88;;;13.09;100.00
73151;BME280;61354;50.758;6.106;2023-08-30T04:07:33;98330.09;;;13.09;100.00
73151;BME280;61354;50.758;6.106;2023-08-30T04:09:59;98332.88;;;13.09;100.00
73151;BME280;61354;50.758;6.106;2023-08-30T04:12:24;98328.13;;;13.13;100.00
73151;BME280;61354;50.758;6.106;2023-08-30T04:14:50;98328.91;;;13.14;100.00
73151;BME280;61354;50.758;6.106;2023-08-30T04:17:15;98326.53;;;13.12;100.00
73151;BME280;61354;50.758;6.106;2023-08-30T04:19:41;98319.75;;;13.13;100.00
73151;BME280;61354;50.758;6.106;2023-08-30T04:22:06;98314.97;;;13.10;100.00
73151;BME280;61354;50.758;6.106;2023-08-30T04:24:32;98326.50;;;13.09;100.00
73151;BME280;61354;50.758;6.106;2023-08-30T04:26:58;98326.09;;;13.10;100.00
73151;BME280;61354;50.758;6.106;2023-08-30T04:29:23;98318.16;;;13.09;100.00
73151;BME280;61354;50.758;6.106;2023-08-30T04:31:49;98328.53;;;13.15;100.00
73151;BME280;61354;50.758;6.106;2023-08-30T04:34:14;98318.16;;;13.12;100.00
73151;BME280;61354;50.758;6.106;2023-08-30T04:36:41;98319.75;;;13.13;100.00
73151;BME280;61354;50.758;6.106;2023-08-30T04:39:06;98318.97;;;13.13;100.00
73151;BME280;61354;50.758;6.106;2023-08-30T04:41:32;98320.56;;;13.07;100.00
73151;BME280;61354;50.758;6.106;2023-08-30T04:43:59;98322.53;;;13.06;100.00
73151;BME280;61354;50.758;6.106;2023-08-30T04:46:24;98316.94;;;13.10;100.00
73151;BME280;61354;50.758;6.106;2023-08-30T04:48:50;98314.19;;;13.13;100.00
73151;BME280;61354;50.758;6.106;2023-08-30T04:51:15;98308.59;;;13.13;100.00
73151;BME280;61354;50.758;6.106;2023-08-30T04:53:41;98300.25;;;13.13;100.00
73151;BME280;61354;50.758;6.106;2023-08-30T04:56:14;98306.22;;;13.12;100.00
73151;BME280;61354;50.758;6.106;2023-08-30T04:58:40;98302.22;;;13.06;100.00
73151;BME280;61354;50.758;6.106;2023-08-30T05:01:06;98305.00;;;13.09;100.00
73151;BME280;61354;50.758;6.106;2023-08-30T05:03:32;98304.19;;;13.05;100.00
73151;BME280;61354;50.758;6.106;2023-08-30T05:05:58;98303.03;;;13.06;100.00
73151;BME280;61354;50.758;6.106;2023-08-30T05:08:24;98305.81;;;13.10;100.00
73151;BME280;61354;50.758;6.106;2023-08-30T05:10:49;98302.63;;;13.11;100.00
73151;BME280;61354;50.758;6.106;2023-08-30T05:13:16;98301.84;;;13.07;100.00
73151;BME280;61354;50.758;6.106;2023-08-30T05:15:42;98295.47;;;13.07;100.00
73151;BME280;61354;50.758;6.106;2023-08-30T05:18:07;98304.22;;;13.09;100.00
73151;BME280;61354;50.758;6.106;2023-08-30T05:20:33;98289.88;;;13.10;100.00
73151;BME280;61354;50.758;6.106;2023-08-30T05:22:58;98289.88;;;13.10;100.00
73151;BME280;61354;50.758;6.106;2023-08-30T05:25:26;98293.06;;;13.12;100.00
73151;BME280;61354;50.758;6.106;2023-08-30T05:27:51;98286.72;;;13.15;100.00
73151;BME280;61354;50.758;6.106;2023-08-30T05:30:17;98283.50;;;13.13;100.00
73151;BME280;61354;50.758;6.106;2023-08-30T05:32:42;98285.50;;;13.16;100.00
73151;BME280;61354;50.758;6.106;2023-08-30T05:35:17;98274.75;;;13.18;100.00
73151;BME280;61354;50.758;6.106;2023-08-30T05:37:43;98273.19;;;13.21;100.00
73151;BME280;61354;50.758;6.106;2023-08-30T05:40:09;98266.44;;;13.26;100.00
73151;BME280;61354;50.758;6.106;2023-08-30T05:42:35;98261.28;;;13.24;100.00
73151;BME280;61354;50.758;6.106;2023-08-30T05:45:00;98265.66;;;13.32;100.00
73151;BME280;61354;50.758;6.106;2023-08-30T05:47:26;98266.84;;;13.35;100.00
73151;BME280;61354;50.758;6.106;2023-08-30T05:49:51;98259.69;;;13.41;100.00
73151;BME280;61354;50.758;6.106;2023-08-30T05:52:17;98256.47;;;13.46;100.00
73151;BME280;61354;50.758;6.106;2023-08-30T05:54:43;98255.69;;;13.49;100.00
73151;BME280;61354;50.758;6.106;2023-08-30T05:57:09;98252.50;;;13.54;100.00
73151;BME280;61354;50.758;6.106;2023-08-30T05:59:35;98248.91;;;13.57;100.00
73151;BME280;61354;50.758;6.106;2023-08-30T06:02:01;98245.72;;;13.62;100.00
73151;BME280;61354;50.758;6.106;2023-08-30T06:04:27;98237.34;;;13.66;100.00
73151;BME280;61354;50.758;6.106;2023-08-30T06:06:52;98236.56;;;13.69;100.00
73151;BME280;61354;50.758;6.106;2023-08-30T06:09:18;98249.31;;;13.70;100.00
73151;BME280;61354;50.758;6.106;2023-08-30T06:11:44;98242.09;;;13.73;100.00
73151;BME280;61354;50.758;6.106;2023-08-30T06:14:09;98232.94;;;13.72;100.00
73151;BME280;61354;50.758;6.106;2023-08-30T06:16:35;98234.16;;;13.75;100.00
73151;BME280;61354;50.758;6.106;2023-08-30T06:19:03;98230.94;;;13.80;100.00
73151;BME280;61354;50.758;6.106;2023-08-30T06:21:29;98237.31;;;13.80;100.00
73151;BME280;61354;50.758;6.106;2023-08-30T06:23:54;98229.34;;;13.86;100.00
73151;BME280;61354;50.758;6.106;2023-08-30T06:26:20;98226.16;;;13.91;100.00
73151;BME280;61354;50.758;6.106;2023-08-30T06:28:48;98222.56;;;13.94;100.00
73151;BME280;61354;50.758;6.106;2023-08-30T06:31:14;98218.94;;;13.97;100.00
73151;BME280;61354;50.758;6.106;2023-08-30T06:33:39;98216.94;;;14.01;100.00
73151;BME280;61354;50.758;6.106;2023-08-30T06:36:17;98214.13;;;14.05;100.00
73151;BME280;61354;50.758;6.106;2023-08-30T06:38:43;98205.34;;;14.10;100.00
73151;BME280;61354;50.758;6.106;2023-08-30T06:41:09;98213.31;;;14.11;100.00
73151;BME280;61354;50.758;6.106;2023-08-30T06:43:35;98208.53;;;14.12;100.00
73151;BME280;61354;50.758;6.106;2023-08-30T06:46:00;98206.53;;;14.09;100.00
73151;BME280;61354;50.758;6.106;2023-08-30T06:48:26;98200.16;;;14.08;100.00
73151;BME280;61354;50.758;6.106;2023-08-30T06:50:52;98200.94;;;14.12;100.00
73151;BME280;61354;50.758;6.106;2023-08-30T06:53:17;98200.16;;;14.15;100.00
73151;BME280;61354;50.758;6.106;2023-08-30T06:55:43;98200.50;;;14.21;100.00
73151;BME280;61354;50.758;6.106;2023-08-30T06:58:08;98192.53;;;14.27;100.00
73151;BME280;61354;50.758;6.106;2023-08-30T07:00:34;98193.25;;;14.38;100.00
73151;BME280;61354;50.758;6.106;2023-08-30T07:02:59;98182.84;;;14.46;100.00
73151;BME280;61354;50.758;6.106;2023-08-30T07:05:25;98182.84;;;14.53;100.00
73151;BME280;61354;50.758;6.106;2023-08-30T07:07:50;98188.34;;;14.63;100.00
73151;BME280;61354;50.758;6.106;2023-08-30T07:10:16;98189.91;;;14.72;100.00
73151;BME280;61354;50.758;6.106;2023-08-30T07:12:42;98187.47;;;14.81;98.86
73151;BME280;61354;50.758;6.106;2023-08-30T07:15:08;98181.81;;;14.88;98.26
73151;BME280;61354;50.758;6.106;2023-08-30T07:17:34;98176.19;;;14.91;99.57
73151;BME280;61354;50.758;6.106;2023-08-30T07:20:00;98177.78;;;14.92;98.62
73151;BME280;61354;50.758;6.106;2023-08-30T07:22:26;98173.81;;;14.94;98.46
73151;BME280;61354;50.758;6.106;2023-08-30T07:24:52;98175.38;;;14.95;97.96
73151;BME280;61354;50.758;6.106;2023-08-30T07:27:17;98184.91;;;15.01;98.29
73151;BME280;61354;50.758;6.106;2023-08-30T07:29:43;98191.25;;;15.08;99.63
73151;BME280;61354;50.758;6.106;2023-08-30T07:32:09;98192.03;;;15.09;98.78
73151;BME280;61354;50.758;6.106;2023-08-30T07:34:35;98187.63;;;15.11;98.24
73151;BME280;61354;50.758;6.106;2023-08-30T07:37:01;98181.59;;;15.16;98.53
73151;BME280;61354;50.758;6.106;2023-08-30T07:39:27;98177.94;;;15.27;99.73
73151;BME280;61354;50.758;6.106;2023-08-30T07:41:53;98185.09;;;15.28;97.97
73151;BME280;61354;50.758;6.106;2023-08-30T07:44:18;98179.81;;;15.37;98.22
73151;BME280;61354;50.758;6.106;2023-08-30T07:46:45;98175.00;;;15.41;97.21
73151;BME280;61354;50.758;6.106;2023-08-30T07:49:11;98177.34;;;15.46;97.85
73151;BME280;61354;50.758;6.106;2023-08-30T07:51:37;98185.31;;;15.51;97.68
73151;BME280;61354;50.758;6.106;2023-08-30T07:54:02;98187.34;;;15.47;100.00
73151;BME280;61354;50.758;6.106;2023-08-30T07:56:28;98182.19;;;15.42;100.00
73151;BME280;61354;50.758;6.106;2023-08-30T07:58:54;98192.53;;;15.45;100.00
73151;BME280;61354;50.758;6.106;2023-08-30T08:01:20;98194.59;;;15.41;100.00
73151;BME280;61354;50.758;6.106;2023-08-30T08:03:45;98191.78;;;15.41;100.00
73151;BME280;61354;50.758;6.106;2023-08-30T08:06:12;98187.78;;;15.38;100.00
73151;BME280;61354;50.758;6.106;2023-08-30T08:08:37;98186.69;;;15.29;100.00
73151;BME280;61354;50.758;6.106;2023-08-30T08:11:03;98185.06;;;15.35;100.00
73151;BME280;61354;50.758;6.106;2023-08-30T08:13:29;98184.66;;;15.33;100.00
73151;BME280;61354;50.758;6.106;2023-08-30T08:15:57;98183.25;;;15.14;100.00
73151;BME280;61354;50.758;6.106;2023-08-30T08:18:23;98180.72;;;15.27;100.00
73151;BME280;61354;50.758;6.106;2023-08-30T08:20:49;98183.06;;;15.32;100.00
73151;BME280;61354;50.758;6.106;2023-08-30T08:23:15;98182.19;;;15.42;100.00
73151;BME280;61354;50.758;6.106;2023-08-30T08:25:40;98185.31;;;15.51;100.00
73151;BME280;61354;50.758;6.106;2023-08-30T08:28:06;98179.63;;;15.58;100.00
73151;BME280;61354;50.758;6.106;2023-08-30T08:30:32;98177.69;;;15.55;100.00
73151;BME280;61354;50.758;6.106;2023-08-30T08:32:58;98180.84;;;15.57;100.00
73151;BME280;61354;50.758;6.106;2023-08-30T08:35:24;98170.91;;;15.49;100.00
73151;BME280;61354;50.758;6.106;2023-08-30T08:37:50;98164.44;;;15.59;100.00
73151;BME280;61354;50.758;6.106;2023-08-30T08:40:16;98173.16;;;15.69;100.00
73151;BME280;61354;50.758;6.106;2023-08-30T08:42:42;98165.88;;;15.75;100.00
73151;BME280;61354;50.758;6.106;2023-08-30T08:45:09;98156.50;;;15.92;100.00
73151;BME280;61354;50.758;6.106;2023-08-30T08:47:35;98168.09;;;15.94;98.46
73151;BME280;61354;50.758;6.106;2023-08-30T08:50:01;98166.13;;;15.91;99.56
73151;BME280;61354;50.758;6.106;2023-08-30T08:52:29;98160.81;;;16.00;99.87
73151;BME280;61354;50.758;6.106;2023-08-30T08:54:55;98161.88;;;16.13;100.00
73151;BME280;61354;50.758;6.106;2023-08-30T08:57:21;98175.19;;;16.02;98.81
73151;BME280;61354;50.758;6.106;2023-08-30T08:59:46;98158.91;;;15.94;99.32
73151;BME280;61354;50.758;6.106;2023-08-30T09:02:14;98173.41;;;15.85;99.52
73151;BME280;61354;50.758;6.106;2023-08-30T09:04:40;98166.13;;;15.91;98.66
73151;BME280;61354;50.758;6.106;2023-08-30T09:07:05;98161.06;;;15.79;95.81
73151;BME280;61354;50.758;6.106;2023-08-30T09:09:31;98160.81;;;16.00;97.12
73151;BME280;61354;50.758;6.106;2023-08-30T09:11:56;98171.75;;;16.22;97.33
73151;BME280;61354;50.758;6.106;2023-08-30T09:14:22;98169.72;;;16.26;94.89
73151;BME280;61354;50.758;6.106;2023-08-30T09:16:58;98161.00;;;16.16;92.98
73151;BME280;61354;50.758;6.106;2023-08-30T09:19:24;98160.09;;;16.27;94.66
73151;BME280;61354;50.758;6.106;2023-08-30T09:21:57;98163.63;;;16.31;92.64
73151;BME280;61354;50.758;6.106;2023-08-30T09:24:23;98153.41;;;16.48;93.89
73151;BME280;61354;50.758;6.106;2023-08-30T09:26:50;98160.38;;;16.36;92.80
73151;BME280;61354;50.758;6.106;2023-08-30T09:29:17;98172.88;;;16.28;91.50
73151;BME280;61354;50.758;6.106;2023-08-30T09:31:43;98170.13;;;16.24;91.50
73151;BME280;61354;50.758;6.106;2023-08-30T09:34:09;98170.94;;;16.21;91.41
73151;BME280;61354;50.758;6.106;2023-08-30T09:36:38;98170.81;;;16.32;91.76
73151;BME280;61354;50.758;6.106;2023-08-30T09:39:14;98178.59;;;16.17;98.20
73151;BME280;61354;50.758;6.106;2023-08-30T09:41:44;98176.78;;;16.03;98.37
73151;BME280;61354;50.758;6.106;2023-08-30T09:44:10;98178.19;;;16.19;100.00
73151;BME280;61354;50.758;6.106;2023-08-30T09:46:46;98180.00;;;16.02;97.01
73151;BME280;61354;50.758;6.106;2023-08-30T09:49:12;98180.28;;;15.77;96.99
73151;BME280;61354;50.758;6.106;2023-08-30T09:51:40;98173.81;;;15.80;98.35
73151;BME280;61354;50.758;6.106;2023-08-30T09:54:14;98181.16;;;15.22;100.00
73151;BME280;61354;50.758;6.106;2023-08-30T09:56:40;98194.53;;;14.96;100.00
73151;BME280;61354;50.758;6.106;2023-08-30T09:59:06;98179.47;;;14.83;100.00
73151;BME280;61354;50.758;6.106;2023-08-30T10:01:32;98191.53;;;14.73;100.00
73151;BME280;61354;50.758;6.106;2023-08-30T10:03:58;98187.41;;;14.88;100.00
73151;BME280;61354;50.758;6.106;2023-08-30T10:06:25;98192.22;;;14.84;100.00
73151;BME280;61354;50.758;6.106;2023-08-30T10:08:52;98186.41;;;14.60;100.00
73151;BME280;61354;50.758;6.106;2023-08-30T10:11:38;98178.03;;;14.60;100.00
73151;BME280;61354;50.758;6.106;2023-08-30T10:14:07;98188.88;;;14.37;100.00
73151;BME280;61354;50.758;6.106;2023-08-30T10:16:47;98184.41;;;14.57;100.00
73151;BME280;61354;50.758;6.106;2023-08-30T10:19:21;98182.44;;;14.54;100.00
73151;BME280;61354;50.758;6.106;2023-08-30T10:21:56;98180.84;;;14.46;100.00
73151;BME280;61354;50.758;6.106;2023-08-30T10:24:43;98182.88;;;14.49;100.00
73151;BME280;61354;50.758;6.106;2023-08-30T10:27:10;98193.16;;;14.59;100.00
73151;BME280;61354;50.758;6.106;2023-08-30T10:29:37;98186.84;;;14.52;100.00
73151;BME280;61354;50.758;6.106;2023-08-30T10:32:05;98180.84;;;14.46;100.00
73151;BME280;61354;50.758;6.106;2023-08-30T10:34:32;98184.88;;;14.49;100.00
73151;BME280;61354;50.758;6.106;2023-08-30T10:37:00;98185.22;;;14.54;100.00
73151;BME280;61354;50.758;6.106;2023-08-30T10:39:37;98190.75;;;14.69;100.00
73151;BME280;61354;50.758;6.106;2023-08-30T10:42:13;98178.81;;;14.61;100.00
73151;BME280;61354;50.758;6.106;2023-08-30T10:44:56;98181.97;;;14.63;100.00
73151;BME280;61354;50.758;6.106;2023-08-30T10:47:34;98187.59;;;14.59;100.00
73151;BME280;61354;50.758;6.106;2023-08-30T10:50:10;98186.41;;;14.60;100.00
73151;BME280;61354;50.758;6.106;2023-08-30T10:52:36;98186.03;;;14.48;100.00
73151;BME280;61354;50.758;6.106;2023-08-30T10:55:31;98188.88;;;14.40;100.00
73151;BME280;61354;50.758;6.106;2023-08-30T10:58:03;98192.47;;;14.34;100.00
73151;BME280;61354;50.758;6.106;2023-08-30T11:00:30;98180.06;;;14.42;100.00
73151;BME280;61354;50.758;6.106;2023-08-30T11:02:56;98185.25;;;14.43;100.00
73151;BME280;61354;50.758;6.106;2023-08-30T11:05:23;98185.22;;;14.47;100.00
73151;BME280;61354;50.758;6.106;2023-08-30T11:07:49;98181.19;;;14.62;100.00
73151;BME280;61354;50.758;6.106;2023-08-30T11:10:16;98176.06;;;14.43;100.00
73151;BME280;61354;50.758;6.106;2023-08-30T11:12:43;98188.06;;;14.40;100.00
73151;BME280;61354;50.758;6.106;2023-08-30T11:15:10;98178.91;;;14.36;100.00
73151;BME280;61354;50.758;6.106;2023-08-30T11:17:36;98177.78;;;14.23;100.00
73151;BME280;61354;50.758;6.106;2023-08-30T11:22:39;98177.38;;;14.28;100.00
73151;BME280;61354;50.758;6.106;2023-08-30T11:25:07;98174.97;;;14.26;100.00
73151;BME280;61354;50.758;6.106;2023-08-30T11:27:33;98184.53;;;14.29;100.00
73151;BME280;61354;50.758;6.106;2023-08-30T11:29:59;98176.13;;;14.39;100.00
73151;BME280;61354;50.758;6.106;2023-08-30T11:32:26;98188.09;;;14.36;100.00
73151;BME280;61354;50.758;6.106;2023-08-30T11:34:57;98188.91;;;14.33;100.00
73151;BME280;61354;50.758;6.106;2023-08-30T11:37:29;98179.41;;;14.16;100.00
73151;BME280;61354;50.758;6.106;2023-08-30T11:39:55;98177.38;;;14.28;100.00
73151;BME280;61354;50.758;6.106;2023-08-30T11:42:22;98174.91;;;14.37;100.00
73151;BME280;61354;50.758;6.106;2023-08-30T11:44:47;98174.94;;;14.33;100.00
73151;BME280;61354;50.758;6.106;2023-08-30T11:47:22;98173.72;;;14.34;100.00
73151;BME280;61354;50.758;6.106;2023-08-30T11:49:57;98171.78;;;14.28;100.00
73151;BME280;61354;50.758;6.106;2023-08-30T11:52:25;98168.56;;;14.33;100.00
73151;BME280;61354;50.758;6.106;2023-08-30T11:54:51;98170.97;;;14.31;100.00
73151;BME280;61354;50.758;6.106;2023-08-30T11:57:17;98172.13;;;14.37;100.00
73151;BME280;61354;50.758;6.106;2023-08-30T11:59:43;98182.53;;;14.33;100.00
73151;BME280;61354;50.758;6.106;2023-08-30T12:02:12;98163.00;;;14.26;100.00
73151;BME280;61354;50.758;6.106;2023-08-30T12:04:43;98167.69;;;14.43;100.00
73151;BME280;61354;50.758;6.106;2023-08-30T12:07:09;98168.47;;;14.47;100.00
73151;BME280;61354;50.758;6.106;2023-08-30T12:09:36;98165.66;;;14.47;100.00
73151;BME280;61354;50.758;6.106;2023-08-30T12:12:09;98165.28;;;14.52;100.00
73151;BME280;61354;50.758;6.106;2023-08-30T12:14:36;98163.72;;;14.40;100.00
73151;BME280;61354;50.758;6.106;2023-08-30T12:17:02;98170.09;;;14.41;100.00
73151;BME280;61354;50.758;6.106;2023-08-30T12:19:29;98173.38;;;14.25;100.00
73151;BME280;61354;50.758;6.106;2023-08-30T12:21:54;98173.41;;;14.18;100.00
73151;BME280;61354;50.758;6.106;2023-08-30T12:24:20;98171.00;;;14.20;100.00
73151;BME280;61354;50.758;6.106;2023-08-30T12:26:46;98174.25;;;14.08;100.00
73151;BME280;61354;50.758;6.106;2023-08-30T12:29:11;98173.47;;;14.00;100.00
73151;BME280;61354;50.758;6.106;2023-08-30T12:31:37;98174.25;;;14.08;100.00
73151;BME280;61354;50.758;6.106;2023-08-30T12:34:02;98165.50;;;14.02;100.00
73151;BME280;61354;50.758;6.106;2023-08-30T12:36:38;98179.06;;;14.00;100.00
73151;BME280;61354;50.758;6.106;2023-08-30T12:46:34;98171.44;;;14.18;100.00
73151;BME280;61354;50.758;6.106;2023-08-30T12:49:00;98170.25;;;14.12;100.00
73151;BME280;61354;50.758;6.106;2023-08-30T12:51:26;98163.00;;;14.26;100.00
73151;BME280;61354;50.758;6.106;2023-08-30T12:53:51;98167.84;;;14.14;100.00
73151;BME280;61354;50.758;6.106;2023-08-30T12:56:17;98167.75;;;14.32;100.00
73151;BME280;61354;50.758;6.106;2023-08-30T12:58:42;98174.94;;;14.30;100.00
73151;BME280;61354;50.758;6.106;2023-08-30T13:01:08;98177.81;;;14.12;100.00